sensor_id;sensor_type;location;lat;lon;timestamp;P1;durP1;ratioP1;P2;durP2;ratioP2
44824;SDS011;30542;47.928;2.138;2023-08-20T00:04:29;3.45;;;0.70;;
44824;SDS011;30542;47.928;2.138;2023-08-20T00:09:31;3.78;;;0.85;;
44824;SDS011;30542;47.928;2.138;2023-08-20T00:19:55;1.65;;;0.73;;
44824;SDS011;30542;47.928;2.138;2023-08-20T00:24:55;2.35;;;0.60;;
44824;SDS011;30542;47.928;2.138;2023-08-20T00:29:56;2.33;;;0.93;;
44824;SDS011;30542;47.928;2.138;2023-08-20T00:34:56;5.73;;;0.80;;
44824;SDS011;30542;47.928;2.138;2023-08-20T00:39:57;6.23;;;0.90;;
44824;SDS011;30542;47.928;2.138;2023-08-20T00:45:00;3.72;;;0.50;;
44824;SDS011;30542;47.928;2.138;2023-08-20T00:50:01;3.90;;;0.87;;
44824;SDS011;30542;47.928;2.138;2023-08-20T00:55:09;2.30;;;0.60;;
44824;SDS011;30542;47.928;2.138;2023-08-20T01:00:10;1.17;;;0.50;;
44824;SDS011;30542;47.928;2.138;2023-08-20T01:05:11;3.40;;;0.68;;
44824;SDS011;30542;47.928;2.138;2023-08-20T01:15:24;2.72;;;0.50;;
44824;SDS011;30542;47.928;2.138;2023-08-20T01:20:26;1.58;;;0.50;;
44824;SDS011;30542;47.928;2.138;2023-08-20T01:30:43;3.65;;;0.70;;
44824;SDS011;30542;47.928;2.138;2023-08-20T01:35:44;2.72;;;0.60;;
44824;SDS011;30542;47.928;2.138;2023-08-20T01:40:44;6.27;;;1.40;;
44824;SDS011;30542;47.928;2.138;2023-08-20T01:45:45;0.98;;;0.50;;
44824;SDS011;30542;47.928;2.138;2023-08-20T01:50:46;3.28;;;0.70;;
44824;SDS011;30542;47.928;2.138;2023-08-20T01:55:46;1.10;;;0.50;;
44824;SDS011;30542;47.928;2.138;2023-08-20T02:00:47;4.27;;;0.90;;
44824;SDS011;30542;47.928;2.138;2023-08-20T02:05:47;3.05;;;0.60;;
44824;SDS011;30542;47.928;2.138;2023-08-20T02:10:48;2.65;;;0.68;;
44824;SDS011;30542;47.928;2.138;2023-08-20T02:15:56;3.88;;;0.95;;
44824;SDS011;30542;47.928;2.138;2023-08-20T02:20:57;3.92;;;0.70;;
44824;SDS011;30542;47.928;2.138;2023-08-20T02:25:58;2.75;;;0.60;;
44824;SDS011;30542;47.928;2.138;2023-08-20T02:30:59;2.07;;;0.80;;
44824;SDS011;30542;47.928;2.138;2023-08-20T02:36:05;2.47;;;0.50;;
44824;SDS011;30542;47.928;2.138;2023-08-20T02:41:05;3.97;;;0.80;;
44824;SDS011;30542;47.928;2.138;2023-08-20T02:46:06;3.43;;;0.70;;
44824;SDS011;30542;47.928;2.138;2023-08-20T02:51:06;3.10;;;0.70;;
44824;SDS011;30542;47.928;2.138;2023-08-20T02:56:06;4.97;;;1.05;;
44824;SDS011;30542;47.928;2.138;2023-08-20T03:01:17;1.48;;;0.60;;
44824;SDS011;30542;47.928;2.138;2023-08-20T03:06:18;4.15;;;0.95;;
44824;SDS011;30542;47.928;2.138;2023-08-20T03:11:19;3.45;;;0.65;;
44824;SDS011;30542;47.928;2.138;2023-08-20T03:16:19;3.67;;;0.70;;
44824;SDS011;30542;47.928;2.138;2023-08-20T03:21:19;1.23;;;0.60;;
44824;SDS011;30542;47.928;2.138;2023-08-20T03:26:20;4.00;;;0.60;;
44824;SDS011;30542;47.928;2.138;2023-08-20T03:31:20;6.90;;;1.23;;
44824;SDS011;30542;47.928;2.138;2023-08-20T03:36:20;2.70;;;0.80;;
44824;SDS011;30542;47.928;2.138;2023-08-20T03:41:21;3.33;;;0.67;;
44824;SDS011;30542;47.928;2.138;2023-08-20T03:46:21;4.00;;;0.83;;
44824;SDS011;30542;47.928;2.138;2023-08-20T03:51:21;5.20;;;1.43;;
44824;SDS011;30542;47.928;2.138;2023-08-20T03:56:22;1.33;;;0.63;;
44824;SDS011;30542;47.928;2.138;2023-08-20T04:01:22;2.17;;;0.93;;
44824;SDS011;30542;47.928;2.138;2023-08-20T04:06:22;1.80;;;0.50;;
44824;SDS011;30542;47.928;2.138;2023-08-20T04:11:23;2.60;;;0.40;;
44824;SDS011;30542;47.928;2.138;2023-08-20T04:16:24;3.08;;;0.70;;
44824;SDS011;30542;47.928;2.138;2023-08-20T04:21:24;2.50;;;0.50;;
44824;SDS011;30542;47.928;2.138;2023-08-20T04:26:24;2.30;;;0.60;;
44824;SDS011;30542;47.928;2.138;2023-08-20T04:31:25;3.63;;;0.60;;
44824;SDS011;30542;47.928;2.138;2023-08-20T04:36:25;2.83;;;0.60;;
44824;SDS011;30542;47.928;2.138;2023-08-20T04:41:25;3.77;;;0.70;;
44824;SDS011;30542;47.928;2.138;2023-08-20T04:46:26;2.55;;;0.70;;
44824;SDS011;30542;47.928;2.138;2023-08-20T04:51:28;2.08;;;0.50;;
44824;SDS011;30542;47.928;2.138;2023-08-20T04:56:28;3.50;;;0.65;;
44824;SDS011;30542;47.928;2.138;2023-08-20T05:01:29;1.87;;;0.73;;
44824;SDS011;30542;47.928;2.138;2023-08-20T05:06:29;2.03;;;0.70;;
44824;SDS011;30542;47.928;2.138;2023-08-20T05:11:29;2.67;;;0.65;;
44824;SDS011;30542;47.928;2.138;2023-08-20T05:16:32;5.90;;;0.80;;
44824;SDS011;30542;47.928;2.138;2023-08-20T05:21:33;5.13;;;0.70;;
44824;SDS011;30542;47.928;2.138;2023-08-20T05:26:34;2.10;;;0.40;;
44824;SDS011;30542;47.928;2.138;2023-08-20T05:31:34;2.03;;;0.55;;
44824;SDS011;30542;47.928;2.138;2023-08-20T05:36:34;5.03;;;0.70;;
44824;SDS011;30542;47.928;2.138;2023-08-20T05:41:34;1.55;;;0.85;;
44824;SDS011;30542;47.928;2.138;2023-08-20T05:46:35;2.73;;;0.60;;
44824;SDS011;30542;47.928;2.138;2023-08-20T05:51:35;2.38;;;0.60;;
44824;SDS011;30542;47.928;2.138;2023-08-20T05:56:36;1.60;;;0.63;;
44824;SDS011;30542;47.928;2.138;2023-08-20T06:01:36;3.10;;;0.60;;
44824;SDS011;30542;47.928;2.138;2023-08-20T06:06:36;2.33;;;0.40;;
44824;SDS011;30542;47.928;2.138;2023-08-20T06:11:37;2.22;;;0.50;;
44824;SDS011;30542;47.928;2.138;2023-08-20T06:16:37;2.50;;;0.87;;
44824;SDS011;30542;47.928;2.138;2023-08-20T06:21:37;5.57;;;0.93;;
44824;SDS011;30542;47.928;2.138;2023-08-20T06:26:38;4.77;;;1.23;;
44824;SDS011;30542;47.928;2.138;2023-08-20T06:31:38;3.03;;;1.00;;
44824;SDS011;30542;47.928;2.138;2023-08-20T06:36:39;3.30;;;1.40;;
44824;SDS011;30542;47.928;2.138;2023-08-20T06:41:39;4.00;;;1.53;;
44824;SDS011;30542;47.928;2.138;2023-08-20T06:46:40;3.50;;;1.27;;
44824;SDS011;30542;47.928;2.138;2023-08-20T06:51:40;3.72;;;1.58;;
44824;SDS011;30542;47.928;2.138;2023-08-20T06:56:40;3.80;;;1.90;;
44824;SDS011;30542;47.928;2.138;2023-08-20T07:01:41;2.83;;;1.83;;
44824;SDS011;30542;47.928;2.138;2023-08-20T07:06:41;2.97;;;1.80;;
44824;SDS011;30542;47.928;2.138;2023-08-20T07:11:42;3.03;;;1.30;;
44824;SDS011;30542;47.928;2.138;2023-08-20T07:16:42;3.40;;;1.83;;
44824;SDS011;30542;47.928;2.138;2023-08-20T07:21:42;4.10;;;1.97;;
44824;SDS011;30542;47.928;2.138;2023-08-20T07:26:43;3.05;;;1.40;;
44824;SDS011;30542;47.928;2.138;2023-08-20T07:31:44;2.50;;;1.88;;
44824;SDS011;30542;47.928;2.138;2023-08-20T07:36:44;2.37;;;1.30;;
44824;SDS011;30542;47.928;2.138;2023-08-20T07:41:44;3.60;;;1.43;;
44824;SDS011;30542;47.928;2.138;2023-08-20T07:46:44;3.40;;;1.67;;
44824;SDS011;30542;47.928;2.138;2023-08-20T07:51:45;2.90;;;1.73;;
44824;SDS011;30542;47.928;2.138;2023-08-20T07:56:45;2.47;;;1.80;;
44824;SDS011;30542;47.928;2.138;2023-08-20T08:01:45;1.57;;;1.47;;
44824;SDS011;30542;47.928;2.138;2023-08-20T08:06:47;3.45;;;1.40;;
44824;SDS011;30542;47.928;2.138;2023-08-20T08:11:48;4.20;;;1.20;;
44824;SDS011;30542;47.928;2.138;2023-08-20T08:16:49;3.40;;;1.23;;
44824;SDS011;30542;47.928;2.138;2023-08-20T08:21:50;3.63;;;1.40;;
44824;SDS011;30542;47.928;2.138;2023-08-20T08:26:50;1.90;;;1.25;;
44824;SDS011;30542;47.928;2.138;2023-08-20T08:31:50;1.67;;;1.27;;
44824;SDS011;30542;47.928;2.138;2023-08-20T08:36:51;2.70;;;1.70;;
44824;SDS011;30542;47.928;2.138;2023-08-20T08:41:51;3.27;;;0.97;;
44824;SDS011;30542;47.928;2.138;2023-08-20T08:46:59;1.98;;;1.30;;
44824;SDS011;30542;47.928;2.138;2023-08-20T08:52:01;2.25;;;1.35;;
44824;SDS011;30542;47.928;2.138;2023-08-20T08:57:04;2.05;;;1.13;;
44824;SDS011;30542;47.928;2.138;2023-08-20T09:02:07;1.65;;;1.50;;
44824;SDS011;30542;47.928;2.138;2023-08-20T09:07:13;2.03;;;1.38;;
44824;SDS011;30542;47.928;2.138;2023-08-20T09:17:21;3.72;;;1.58;;
44824;SDS011;30542;47.928;2.138;2023-08-20T09:22:26;2.35;;;1.20;;
44824;SDS011;30542;47.928;2.138;2023-08-20T09:27:26;2.30;;;1.20;;
44824;SDS011;30542;47.928;2.138;2023-08-20T09:32:27;4.20;;;1.52;;
44824;SDS011;30542;47.928;2.138;2023-08-20T09:37:27;2.75;;;0.95;;
44824;SDS011;30542;47.928;2.138;2023-08-20T09:42:28;3.00;;;1.33;;
44824;SDS011;30542;47.928;2.138;2023-08-20T09:47:33;3.70;;;1.20;;
44824;SDS011;30542;47.928;2.138;2023-08-20T09:52:39;3.30;;;1.35;;
44824;SDS011;30542;47.928;2.138;2023-08-20T09:57:42;2.25;;;1.27;;
44824;SDS011;30542;47.928;2.138;2023-08-20T10:02:43;2.20;;;1.27;;
44824;SDS011;30542;47.928;2.138;2023-08-20T10:07:44;1.70;;;0.95;;
44824;SDS011;30542;47.928;2.138;2023-08-20T10:12:45;3.22;;;1.13;;
44824;SDS011;30542;47.928;2.138;2023-08-20T10:17:46;1.55;;;1.10;;
44824;SDS011;30542;47.928;2.138;2023-08-20T10:22:46;3.08;;;1.00;;
44824;SDS011;30542;47.928;2.138;2023-08-20T10:27:50;1.40;;;0.98;;
44824;SDS011;30542;47.928;2.138;2023-08-20T10:32:56;3.38;;;0.90;;
44824;SDS011;30542;47.928;2.138;2023-08-20T10:38:03;2.28;;;1.20;;
44824;SDS011;30542;47.928;2.138;2023-08-20T10:48:04;1.77;;;1.17;;
44824;SDS011;30542;47.928;2.138;2023-08-20T10:53:05;1.80;;;1.00;;
44824;SDS011;30542;47.928;2.138;2023-08-20T10:58:05;1.63;;;0.80;;
44824;SDS011;30542;47.928;2.138;2023-08-20T11:03:06;1.17;;;0.80;;
44824;SDS011;30542;47.928;2.138;2023-08-20T11:08:06;3.60;;;0.73;;
44824;SDS011;30542;47.928;2.138;2023-08-20T11:13:08;1.30;;;0.88;;
44824;SDS011;30542;47.928;2.138;2023-08-20T11:18:08;2.00;;;0.80;;
44824;SDS011;30542;47.928;2.138;2023-08-20T11:23:08;1.80;;;1.03;;
44824;SDS011;30542;47.928;2.138;2023-08-20T11:28:10;1.65;;;0.63;;
44824;SDS011;30542;47.928;2.138;2023-08-20T11:33:10;2.10;;;0.77;;
44824;SDS011;30542;47.928;2.138;2023-08-20T11:38:11;0.90;;;0.60;;
44824;SDS011;30542;47.928;2.138;2023-08-20T11:43:12;1.63;;;0.80;;
44824;SDS011;30542;47.928;2.138;2023-08-20T11:48:13;1.17;;;0.60;;
44824;SDS011;30542;47.928;2.138;2023-08-20T11:53:14;1.38;;;0.80;;
44824;SDS011;30542;47.928;2.138;2023-08-20T11:58:14;1.37;;;0.70;;
44824;SDS011;30542;47.928;2.138;2023-08-20T12:03:15;0.65;;;0.65;;
44824;SDS011;30542;47.928;2.138;2023-08-20T12:08:15;1.10;;;0.60;;
44824;SDS011;30542;47.928;2.138;2023-08-20T12:13:19;1.70;;;0.63;;
44824;SDS011;30542;47.928;2.138;2023-08-20T12:18:19;1.03;;;0.70;;
44824;SDS011;30542;47.928;2.138;2023-08-20T12:23:20;1.33;;;0.70;;
44824;SDS011;30542;47.928;2.138;2023-08-20T12:28:21;1.33;;;0.93;;
44824;SDS011;30542;47.928;2.138;2023-08-20T12:33:22;1.83;;;0.73;;
44824;SDS011;30542;47.928;2.138;2023-08-20T12:38:22;0.90;;;0.70;;
44824;SDS011;30542;47.928;2.138;2023-08-20T12:43:23;0.93;;;0.53;;
44824;SDS011;30542;47.928;2.138;2023-08-20T12:48:23;1.83;;;0.90;;
44824;SDS011;30542;47.928;2.138;2023-08-20T12:53:23;1.03;;;0.60;;
44824;SDS011;30542;47.928;2.138;2023-08-20T12:58:24;1.25;;;0.65;;
44824;SDS011;30542;47.928;2.138;2023-08-20T13:03:27;0.68;;;0.60;;
44824;SDS011;30542;47.928;2.138;2023-08-20T13:08:28;1.48;;;0.80;;
44824;SDS011;30542;47.928;2.138;2023-08-20T13:13:29;1.10;;;0.75;;
44824;SDS011;30542;47.928;2.138;2023-08-20T13:18:33;0.85;;;0.60;;
44824;SDS011;30542;47.928;2.138;2023-08-20T13:23:33;0.90;;;0.60;;
44824;SDS011;30542;47.928;2.138;2023-08-20T13:28:34;0.80;;;0.70;;
44824;SDS011;30542;47.928;2.138;2023-08-20T13:33:34;1.47;;;0.70;;
44824;SDS011;30542;47.928;2.138;2023-08-20T13:38:34;1.33;;;0.70;;
44824;SDS011;30542;47.928;2.138;2023-08-20T13:43:35;1.10;;;0.43;;
44824;SDS011;30542;47.928;2.138;2023-08-20T13:48:35;1.13;;;0.50;;
44824;SDS011;30542;47.928;2.138;2023-08-20T13:53:35;0.77;;;0.50;;
44824;SDS011;30542;47.928;2.138;2023-08-20T13:58:36;0.95;;;0.50;;
44824;SDS011;30542;47.928;2.138;2023-08-20T14:03:36;0.60;;;0.50;;
44824;SDS011;30542;47.928;2.138;2023-08-20T14:08:37;0.60;;;0.50;;
44824;SDS011;30542;47.928;2.138;2023-08-20T14:13:37;0.73;;;0.70;;
44824;SDS011;30542;47.928;2.138;2023-08-20T14:18:38;1.58;;;0.55;;
44824;SDS011;30542;47.928;2.138;2023-08-20T14:23:38;1.93;;;0.57;;
44824;SDS011;30542;47.928;2.138;2023-08-20T14:28:38;1.53;;;0.60;;
44824;SDS011;30542;47.928;2.138;2023-08-20T14:33:39;0.77;;;0.60;;
44824;SDS011;30542;47.928;2.138;2023-08-20T14:38:39;1.77;;;0.50;;
44824;SDS011;30542;47.928;2.138;2023-08-20T14:43:40;0.63;;;0.53;;
44824;SDS011;30542;47.928;2.138;2023-08-20T14:48:41;0.82;;;0.63;;
44824;SDS011;30542;47.928;2.138;2023-08-20T14:53:43;0.60;;;0.60;;
44824;SDS011;30542;47.928;2.138;2023-08-20T14:58:43;1.55;;;0.65;;
44824;SDS011;30542;47.928;2.138;2023-08-20T15:03:43;0.93;;;0.47;;
44824;SDS011;30542;47.928;2.138;2023-08-20T15:08:44;0.50;;;0.40;;
44824;SDS011;30542;47.928;2.138;2023-08-20T15:13:44;1.00;;;0.70;;
44824;SDS011;30542;47.928;2.138;2023-08-20T15:18:44;0.60;;;0.40;;
44824;SDS011;30542;47.928;2.138;2023-08-20T15:23:45;0.77;;;0.60;;
44824;SDS011;30542;47.928;2.138;2023-08-20T15:28:45;0.77;;;0.50;;
44824;SDS011;30542;47.928;2.138;2023-08-20T15:33:45;0.40;;;0.40;;
44824;SDS011;30542;47.928;2.138;2023-08-20T15:38:46;0.50;;;0.40;;
44824;SDS011;30542;47.928;2.138;2023-08-20T15:43:48;0.73;;;0.30;;
44824;SDS011;30542;47.928;2.138;2023-08-20T15:48:48;0.90;;;0.50;;
44824;SDS011;30542;47.928;2.138;2023-08-20T15:53:48;0.93;;;0.50;;
44824;SDS011;30542;47.928;2.138;2023-08-20T15:58:49;0.67;;;0.50;;
44824;SDS011;30542;47.928;2.138;2023-08-20T16:03:49;0.97;;;0.50;;
44824;SDS011;30542;47.928;2.138;2023-08-20T16:08:49;0.43;;;0.40;;
44824;SDS011;30542;47.928;2.138;2023-08-20T16:13:50;0.40;;;0.40;;
44824;SDS011;30542;47.928;2.138;2023-08-20T16:18:50;0.60;;;0.57;;
44824;SDS011;30542;47.928;2.138;2023-08-20T16:23:50;0.63;;;0.40;;
44824;SDS011;30542;47.928;2.138;2023-08-20T16:28:51;0.70;;;0.50;;
44824;SDS011;30542;47.928;2.138;2023-08-20T16:33:51;0.50;;;0.50;;
44824;SDS011;30542;47.928;2.138;2023-08-20T16:38:51;0.43;;;0.43;;
44824;SDS011;30542;47.928;2.138;2023-08-20T16:43:53;0.63;;;0.43;;
44824;SDS011;30542;47.928;2.138;2023-08-20T16:48:53;0.43;;;0.40;;
44824;SDS011;30542;47.928;2.138;2023-08-20T16:53:54;0.50;;;0.40;;
44824;SDS011;30542;47.928;2.138;2023-08-20T16:58:54;0.60;;;0.40;;
44824;SDS011;30542;47.928;2.138;2023-08-20T17:03:54;0.40;;;0.40;;
44824;SDS011;30542;47.928;2.138;2023-08-20T17:08:55;0.45;;;0.45;;
44824;SDS011;30542;47.928;2.138;2023-08-20T17:13:55;0.87;;;0.40;;
44824;SDS011;30542;47.928;2.138;2023-08-20T17:18:57;0.50;;;0.38;;
44824;SDS011;30542;47.928;2.138;2023-08-20T17:23:57;0.70;;;0.50;;
44824;SDS011;30542;47.928;2.138;2023-08-20T17:28:58;0.60;;;0.30;;
44824;SDS011;30542;47.928;2.138;2023-08-20T17:33:58;0.90;;;0.43;;
44824;SDS011;30542;47.928;2.138;2023-08-20T17:38:58;0.47;;;0.30;;
44824;SDS011;30542;47.928;2.138;2023-08-20T17:43:59;0.40;;;0.40;;
44824;SDS011;30542;47.928;2.138;2023-08-20T17:48:59;0.60;;;0.30;;
44824;SDS011;30542;47.928;2.138;2023-08-20T17:53:59;0.40;;;0.37;;
44824;SDS011;30542;47.928;2.138;2023-08-20T17:59:00;0.70;;;0.30;;
44824;SDS011;30542;47.928;2.138;2023-08-20T18:04:00;0.40;;;0.30;;
44824;SDS011;30542;47.928;2.138;2023-08-20T18:09:02;0.50;;;0.30;;
44824;SDS011;30542;47.928;2.138;2023-08-20T18:14:02;0.40;;;0.30;;
44824;SDS011;30542;47.928;2.138;2023-08-20T18:19:02;0.53;;;0.30;;
44824;SDS011;30542;47.928;2.138;2023-08-20T18:24:03;0.40;;;0.40;;
44824;SDS011;30542;47.928;2.138;2023-08-20T18:29:03;1.05;;;0.45;;
44824;SDS011;30542;47.928;2.138;2023-08-20T18:34:04;0.40;;;0.27;;
44824;SDS011;30542;47.928;2.138;2023-08-20T18:39:04;0.52;;;0.25;;
44824;SDS011;30542;47.928;2.138;2023-08-20T18:44:08;0.40;;;0.40;;
44824;SDS011;30542;47.928;2.138;2023-08-20T18:49:09;1.13;;;0.40;;
44824;SDS011;30542;47.928;2.138;2023-08-20T18:54:09;0.40;;;0.30;;
44824;SDS011;30542;47.928;2.138;2023-08-20T18:59:10;0.30;;;0.30;;
44824;SDS011;30542;47.928;2.138;2023-08-20T19:04:10;0.97;;;0.30;;
44824;SDS011;30542;47.928;2.138;2023-08-20T19:09:10;0.70;;;0.40;;
44824;SDS011;30542;47.928;2.138;2023-08-20T19:14:11;1.37;;;0.30;;
44824;SDS011;30542;47.928;2.138;2023-08-20T19:19:11;0.30;;;0.30;;
44824;SDS011;30542;47.928;2.138;2023-08-20T19:24:11;0.40;;;0.30;;
44824;SDS011;30542;47.928;2.138;2023-08-20T19:29:12;0.20;;;0.20;;
44824;SDS011;30542;47.928;2.138;2023-08-20T19:34:12;0.37;;;0.30;;
44824;SDS011;30542;47.928;2.138;2023-08-20T19:39:12;0.47;;;0.30;;
44824;SDS011;30542;47.928;2.138;2023-08-20T19:44:13;0.97;;;0.40;;
44824;SDS011;30542;47.928;2.138;2023-08-20T19:49:13;0.80;;;0.30;;
44824;SDS011;30542;47.928;2.138;2023-08-20T19:54:14;0.77;;;0.30;;
44824;SDS011;30542;47.928;2.138;2023-08-20T19:59:14;1.37;;;0.30;;
44824;SDS011;30542;47.928;2.138;2023-08-20T20:04:14;0.33;;;0.27;;
44824;SDS011;30542;47.928;2.138;2023-08-20T20:09:15;1.20;;;0.30;;
44824;SDS011;30542;47.928;2.138;2023-08-20T20:14:15;0.40;;;0.30;;
44824;SDS011;30542;47.928;2.138;2023-08-20T20:19:15;0.40;;;0.30;;
44824;SDS011;30542;47.928;2.138;2023-08-20T20:24:16;0.33;;;0.33;;
44824;SDS011;30542;47.928;2.138;2023-08-20T20:29:16;1.00;;;0.40;;
44824;SDS011;30542;47.928;2.138;2023-08-20T20:34:16;0.73;;;0.30;;
44824;SDS011;30542;47.928;2.138;2023-08-20T20:39:17;0.50;;;0.30;;
44824;SDS011;30542;47.928;2.138;2023-08-20T20:44:17;0.43;;;0.40;;
44824;SDS011;30542;47.928;2.138;2023-08-20T20:49:17;0.60;;;0.50;;
44824;SDS011;30542;47.928;2.138;2023-08-20T20:54:18;0.55;;;0.20;;
44824;SDS011;30542;47.928;2.138;2023-08-20T20:59:18;1.70;;;0.60;;
44824;SDS011;30542;47.928;2.138;2023-08-20T21:04:18;0.30;;;0.30;;
44824;SDS011;30542;47.928;2.138;2023-08-20T21:09:19;0.30;;;0.30;;
44824;SDS011;30542;47.928;2.138;2023-08-20T21:14:19;0.43;;;0.30;;
44824;SDS011;30542;47.928;2.138;2023-08-20T21:19:19;0.57;;;0.40;;
44824;SDS011;30542;47.928;2.138;2023-08-20T21:24:20;0.30;;;0.30;;
44824;SDS011;30542;47.928;2.138;2023-08-20T21:29:20;0.63;;;0.30;;
44824;SDS011;30542;47.928;2.138;2023-08-20T21:34:20;0.30;;;0.30;;
44824;SDS011;30542;47.928;2.138;2023-08-20T21:39:21;1.20;;;0.25;;
44824;SDS011;30542;47.928;2.138;2023-08-20T21:44:22;0.38;;;0.30;;
44824;SDS011;30542;47.928;2.138;2023-08-20T21:49:22;1.13;;;0.33;;
44824;SDS011;30542;47.928;2.138;2023-08-20T21:54:25;1.38;;;0.40;;
44824;SDS011;30542;47.928;2.138;2023-08-20T21:59:26;0.40;;;0.20;;
44824;SDS011;30542;47.928;2.138;2023-08-20T22:04:26;0.80;;;0.40;;
44824;SDS011;30542;47.928;2.138;2023-08-20T22:09:26;3.27;;;0.73;;
44824;SDS011;30542;47.928;2.138;2023-08-20T22:14:30;5.80;;;1.10;;
44824;SDS011;30542;47.928;2.138;2023-08-20T22:19:30;3.23;;;0.47;;
44824;SDS011;30542;47.928;2.138;2023-08-20T22:24:31;2.40;;;0.63;;
44824;SDS011;30542;47.928;2.138;2023-08-20T22:29:31;3.25;;;0.30;;
44824;SDS011;30542;47.928;2.138;2023-08-20T22:34:31;2.57;;;0.23;;
44824;SDS011;30542;47.928;2.138;2023-08-20T22:39:32;1.63;;;0.40;;
44824;SDS011;30542;47.928;2.138;2023-08-20T22:44:32;2.33;;;0.37;;
44824;SDS011;30542;47.928;2.138;2023-08-20T22:49:32;1.13;;;0.40;;
44824;SDS011;30542;47.928;2.138;2023-08-20T22:54:33;1.93;;;0.30;;
44824;SDS011;30542;47.928;2.138;2023-08-20T22:59:33;3.93;;;0.40;;
44824;SDS011;30542;47.928;2.138;2023-08-20T23:04:33;2.33;;;0.93;;
44824;SDS011;30542;47.928;2.138;2023-08-20T23:09:34;4.30;;;0.50;;
44824;SDS011;30542;47.928;2.138;2023-08-20T23:14:34;3.23;;;0.50;;
44824;SDS011;30542;47.928;2.138;2023-08-20T23:19:34;4.00;;;0.93;;
44824;SDS011;30542;47.928;2.138;2023-08-20T23:24:36;3.25;;;0.60;;
44824;SDS011;30542;47.928;2.138;2023-08-20T23:29:36;2.37;;;0.40;;
44824;SDS011;30542;47.928;2.138;2023-08-20T23:34:36;2.45;;;0.50;;
44824;SDS011;30542;47.928;2.138;2023-08-20T23:39:37;3.38;;;0.80;;
44824;SDS011;30542;47.928;2.138;2023-08-20T23:44:38;3.00;;;0.50;;
44824;SDS011;30542;47.928;2.138;2023-08-20T23:49:38;3.20;;;0.60;;
44824;SDS011;30542;47.928;2.138;2023-08-20T23:54:38;3.80;;;0.60;;
44824;SDS011;30542;47.928;2.138;2023-08-20T23:59:38;2.45;;;0.52;;
